createdAt,value
2017-11-28T00:01:25.501Z,2.20
2017-11-28T00:03:53.623Z,2.10
2017-11-28T00:06:21.784Z,2.30
2017-11-28T00:08:49.919Z,2.10
2017-11-28T00:11:18.065Z,2.13
2017-11-28T00:13:46.967Z,1.57
2017-11-28T00:16:15.900Z,1.80
2017-11-28T00:18:44.033Z,1.80
2017-11-28T00:21:12.947Z,1.83
2017-11-28T00:23:41.065Z,1.60
2017-11-28T00:26:09.244Z,1.70
2017-11-28T00:28:37.378Z,1.40
2017-11-28T00:31:05.657Z,1.63
2017-11-28T00:33:33.780Z,1.40
2017-11-28T00:36:01.952Z,1.20
2017-11-28T00:38:30.098Z,1.47
2017-11-28T00:40:58.237Z,1.37
2017-11-28T00:43:26.385Z,1.20
2017-11-28T00:45:55.274Z,1.23
2017-11-28T00:48:24.191Z,1.17
2017-11-28T00:50:52.314Z,1.40
2017-11-28T00:53:20.455Z,1.67
2017-11-28T00:55:48.611Z,1.50
2017-11-28T00:58:16.800Z,1.20
2017-11-28T01:00:44.935Z,1.30
2017-11-28T01:03:13.848Z,1.20
2017-11-28T01:05:42.008Z,1.37
2017-11-28T01:08:10.935Z,1.60
2017-11-28T01:10:39.075Z,1.43
2017-11-28T01:13:07.223Z,1.50
2017-11-28T01:15:35.334Z,1.87
2017-11-28T01:18:03.499Z,1.80
2017-11-28T01:20:31.628Z,1.30
2017-11-28T01:23:00.587Z,1.30
2017-11-28T01:25:28.710Z,1.60
2017-11-28T01:27:56.851Z,1.00
2017-11-28T01:30:25.058Z,1.03
2017-11-28T01:32:53.216Z,1.40
2017-11-28T01:35:21.403Z,1.20
2017-11-28T01:37:49.556Z,1.30
2017-11-28T01:40:17.688Z,1.33
2017-11-28T01:42:45.838Z,1.40
2017-11-28T01:45:14.719Z,1.50
2017-11-28T01:47:42.919Z,1.43
2017-11-28T01:50:11.852Z,1.50
2017-11-28T01:52:40.018Z,1.70
2017-11-28T01:55:08.268Z,1.60
2017-11-28T01:57:36.387Z,1.30
2017-11-28T02:00:04.518Z,1.70
2017-11-28T02:02:39.120Z,1.80
2017-11-28T02:05:08.026Z,1.50
2017-11-28T02:07:36.196Z,1.63
2017-11-28T02:10:04.355Z,1.93
2017-11-28T02:12:33.252Z,1.70
2017-11-28T02:15:02.156Z,1.80
2017-11-28T02:17:30.275Z,1.60
2017-11-28T02:19:58.443Z,1.50
2017-11-28T02:22:26.580Z,1.90
2017-11-28T02:24:54.746Z,1.40
2017-11-28T02:27:22.873Z,1.80
2017-11-28T02:29:51.447Z,1.60
2017-11-28T02:32:19.657Z,1.57
2017-11-28T02:34:47.855Z,1.70
2017-11-28T02:37:16.089Z,1.33
2017-11-28T02:39:44.308Z,1.40
2017-11-28T02:42:12.521Z,1.07
2017-11-28T02:44:40.734Z,1.17
2017-11-28T02:47:09.304Z,1.53
2017-11-28T02:49:53.220Z,1.67
2017-11-28T02:52:21.442Z,1.53
2017-11-28T02:55:11.356Z,1.30
2017-11-28T02:57:40.289Z,1.50
2017-11-28T03:00:08.439Z,1.50
2017-11-28T03:02:43.423Z,1.57
2017-11-28T03:05:12.380Z,1.30
2017-11-28T03:07:41.409Z,1.60
2017-11-28T03:10:22.113Z,2.00
2017-11-28T03:12:52.028Z,1.90
2017-11-28T03:15:21.056Z,1.97
2017-11-28T03:17:50.040Z,2.17
2017-11-28T03:20:24.067Z,2.47
2017-11-28T03:23:05.678Z,2.67
2017-11-28T03:25:34.589Z,2.87
2017-11-28T03:28:16.056Z,2.93
2017-11-28T03:30:57.817Z,3.40
2017-11-28T03:33:26.032Z,3.20
2017-11-28T03:35:55.018Z,2.93
2017-11-28T03:38:24.010Z,2.83
2017-11-28T03:40:52.996Z,3.13
2017-11-28T03:43:21.130Z,2.97
2017-11-28T03:46:04.985Z,3.40
2017-11-28T03:48:34.987Z,3.27
2017-11-28T03:51:03.159Z,3.93
2017-11-28T03:53:31.416Z,3.33
2017-11-28T03:55:59.578Z,2.63
2017-11-28T03:58:27.801Z,3.20
2017-11-28T04:00:55.924Z,3.30
2017-11-28T04:03:24.158Z,3.30
2017-11-28T04:05:52.349Z,3.43
2017-11-28T04:08:21.390Z,3.03
2017-11-28T04:10:49.539Z,3.20
2017-11-28T04:13:18.543Z,2.87
2017-11-28T04:15:47.687Z,3.77
2017-11-28T04:18:15.864Z,3.33
2017-11-28T04:20:43.984Z,3.33
2017-11-28T04:23:12.223Z,3.00
2017-11-28T04:25:41.222Z,2.77
2017-11-28T04:28:09.456Z,2.80
2017-11-28T04:30:37.691Z,3.37
2017-11-28T04:33:05.942Z,2.80
2017-11-28T04:35:34.122Z,3.13
2017-11-28T04:38:02.376Z,2.93
2017-11-28T04:40:30.600Z,2.70
2017-11-28T04:42:58.720Z,3.10
2017-11-28T04:45:26.854Z,2.87
2017-11-28T04:47:55.050Z,2.90
2017-11-28T04:50:23.274Z,3.37
2017-11-28T04:52:51.428Z,3.13
2017-11-28T04:55:20.330Z,3.10
2017-11-28T04:57:48.479Z,2.80
2017-11-28T05:00:16.630Z,3.20
2017-11-28T05:02:44.803Z,3.27
2017-11-28T05:05:12.983Z,3.00
2017-11-28T05:07:41.199Z,3.53
2017-11-28T05:10:10.188Z,2.87
2017-11-28T05:12:39.207Z,2.90
2017-11-28T05:15:08.175Z,2.73
2017-11-28T05:17:36.316Z,2.63
2017-11-28T05:20:04.483Z,2.70
2017-11-28T05:22:32.713Z,3.30
2017-11-28T05:25:01.700Z,2.77
2017-11-28T05:27:30.642Z,3.20
2017-11-28T05:29:58.814Z,4.53
2017-11-28T05:32:27.022Z,3.20
2017-11-28T05:34:55.206Z,3.13
2017-11-28T05:37:23.322Z,4.30
2017-11-28T05:39:51.949Z,3.90
2017-11-28T05:42:20.120Z,4.07
2017-11-28T05:44:48.279Z,2.60
2017-11-28T05:47:17.759Z,3.33
2017-11-28T05:49:46.000Z,3.00
2017-11-28T05:52:14.940Z,2.70
2017-11-28T05:54:43.137Z,2.57
2017-11-28T05:57:11.317Z,3.10
2017-11-28T05:59:39.496Z,2.77
2017-11-28T06:02:07.693Z,3.10
2017-11-28T06:04:35.805Z,2.53
2017-11-28T06:07:03.947Z,2.83
2017-11-28T06:09:32.831Z,3.13
2017-11-28T06:12:01.040Z,3.13
2017-11-28T06:14:29.263Z,2.77
2017-11-28T06:16:57.449Z,3.77
2017-11-28T06:19:25.623Z,2.83
2017-11-28T06:21:53.827Z,3.00
2017-11-28T06:24:22.679Z,3.80
2017-11-28T06:26:50.872Z,2.63
2017-11-28T06:29:19.034Z,3.30
2017-11-28T06:31:47.162Z,2.50
2017-11-28T06:34:15.296Z,2.60
2017-11-28T06:36:44.251Z,3.23
2017-11-28T06:39:12.436Z,3.33
2017-11-28T06:41:40.556Z,3.40
2017-11-28T06:44:08.726Z,4.10
2017-11-28T06:46:42.651Z,3.10
2017-11-28T06:49:10.747Z,3.00
2017-11-28T06:51:40.287Z,3.00
2017-11-28T06:54:08.489Z,2.77
2017-11-28T06:56:37.372Z,3.50
2017-11-28T06:59:06.315Z,3.10
2017-11-28T07:01:34.435Z,2.50
2017-11-28T07:04:03.373Z,3.20
2017-11-28T07:06:31.520Z,2.70
2017-11-28T07:08:59.629Z,2.70
2017-11-28T07:11:27.772Z,3.07
2017-11-28T07:13:55.882Z,2.93
2017-11-28T07:16:24.027Z,3.10
2017-11-28T07:18:52.127Z,3.50
2017-11-28T07:21:20.263Z,2.67
2017-11-28T07:23:48.385Z,3.40
2017-11-28T07:26:16.508Z,3.77
2017-11-28T07:28:44.667Z,3.33
2017-11-28T07:31:12.837Z,3.63
2017-11-28T07:33:41.781Z,3.03
2017-11-28T07:36:09.902Z,4.30
2017-11-28T07:38:38.885Z,4.00
2017-11-28T07:41:06.991Z,4.50
2017-11-28T07:43:35.126Z,4.40
2017-11-28T07:46:03.234Z,4.40
2017-11-28T07:48:31.369Z,4.63
2017-11-28T07:50:59.472Z,4.37
2017-11-28T07:53:29.153Z,4.20
2017-11-28T07:55:57.292Z,4.40
2017-11-28T07:58:25.424Z,5.03
2017-11-28T08:00:54.335Z,4.43
2017-11-28T08:03:22.517Z,4.80
2017-11-28T08:05:50.628Z,4.67
2017-11-28T08:08:18.861Z,4.10
2017-11-28T08:10:46.975Z,5.03
2017-11-28T08:13:15.137Z,4.23
2017-11-28T08:15:43.236Z,4.70
2017-11-28T08:18:11.378Z,4.67
2017-11-28T08:20:39.497Z,4.43
2017-11-28T08:23:08.378Z,5.20
2017-11-28T08:25:36.476Z,5.03
2017-11-28T08:28:04.605Z,5.30
2017-11-28T08:30:32.702Z,7.97
2017-11-28T08:33:01.654Z,6.20
2017-11-28T08:35:29.785Z,8.60
2017-11-28T08:37:57.962Z,10.17
2017-11-28T08:40:26.087Z,7.13
2017-11-28T08:42:54.290Z,8.43
2017-11-28T08:45:23.177Z,6.00
2017-11-28T08:47:52.971Z,10.07
2017-11-28T08:50:21.068Z,6.03
2017-11-28T08:52:49.984Z,5.77
2017-11-28T08:55:18.128Z,5.17
2017-11-28T08:57:47.062Z,6.57
2017-11-28T09:00:15.167Z,6.87
2017-11-28T09:02:43.331Z,5.23
2017-11-28T09:05:11.454Z,5.30
2017-11-28T09:07:39.611Z,4.17
2017-11-28T09:10:08.862Z,4.43
2017-11-28T09:12:37.035Z,4.47
2017-11-28T09:15:05.157Z,4.27
2017-11-28T09:17:34.112Z,4.40
2017-11-28T09:20:02.229Z,4.30
2017-11-28T09:22:31.203Z,4.63
2017-11-28T09:24:59.373Z,4.07
2017-11-28T09:27:27.507Z,5.20
2017-11-28T09:29:55.600Z,4.57
2017-11-28T09:32:23.751Z,4.73
2017-11-28T09:34:51.849Z,4.20
2017-11-28T09:37:20.026Z,4.30
2017-11-28T09:39:48.154Z,4.93
2017-11-28T09:42:16.257Z,5.07
2017-11-28T09:44:44.397Z,4.90
2017-11-28T09:47:12.593Z,6.90
2017-11-28T09:49:41.195Z,9.67
2017-11-28T09:52:09.338Z,4.00
2017-11-28T09:54:37.521Z,4.90
2017-11-28T09:57:05.638Z,4.53
2017-11-28T09:59:33.759Z,3.87
2017-11-28T10:02:01.874Z,4.40
2017-11-28T10:04:30.009Z,4.57
2017-11-28T10:06:58.125Z,4.30
2017-11-28T10:09:26.230Z,4.33
2017-11-28T10:11:54.346Z,3.97
2017-11-28T10:14:22.503Z,4.80
2017-11-28T10:16:50.617Z,4.37
2017-11-28T10:19:18.810Z,4.17
2017-11-28T10:21:47.685Z,3.60
2017-11-28T10:24:15.799Z,4.50
2017-11-28T10:26:43.910Z,3.80
2017-11-28T10:29:12.046Z,3.97
2017-11-28T10:31:40.138Z,3.70
2017-11-28T10:34:08.323Z,4.77
2017-11-28T10:36:36.436Z,3.87
2017-11-28T10:39:05.350Z,3.77
2017-11-28T10:41:33.516Z,4.70
2017-11-28T10:44:01.631Z,4.20
2017-11-28T10:46:29.767Z,4.93
2017-11-28T10:48:57.891Z,3.97
2017-11-28T10:51:26.070Z,3.60
2017-11-28T10:53:54.191Z,3.83
2017-11-28T10:56:22.367Z,3.60
2017-11-28T10:58:50.540Z,4.07
2017-11-28T11:01:18.707Z,4.40
2017-11-28T11:03:46.831Z,4.27
2017-11-28T11:06:15.010Z,4.07
2017-11-28T11:08:43.139Z,3.60
2017-11-28T11:11:12.608Z,3.47
2017-11-28T11:13:42.795Z,3.30
2017-11-28T11:16:10.932Z,3.63
2017-11-28T11:18:39.055Z,3.30
2017-11-28T11:21:07.207Z,5.43
2017-11-28T11:23:35.760Z,4.20
2017-11-28T11:26:03.919Z,3.50
2017-11-28T11:28:32.808Z,3.30
2017-11-28T11:31:01.715Z,3.77
2017-11-28T11:33:29.834Z,4.20
2017-11-28T11:35:57.975Z,5.53
2017-11-28T11:38:26.094Z,5.10
2017-11-28T11:40:54.234Z,4.20
2017-11-28T11:43:22.354Z,4.07
2017-11-28T11:45:50.499Z,3.90
2017-11-28T11:48:18.626Z,4.00
2017-11-28T11:50:46.771Z,4.03
2017-11-28T11:53:15.695Z,4.40
2017-11-28T11:55:43.844Z,4.13
2017-11-28T11:58:12.734Z,4.10
2017-11-28T12:00:41.624Z,4.03
2017-11-28T12:03:10.531Z,4.50
2017-11-28T12:05:39.424Z,4.57
2017-11-28T12:08:07.586Z,4.40
2017-11-28T12:10:35.719Z,4.27
2017-11-28T12:13:03.868Z,4.70
2017-11-28T12:15:31.986Z,5.00
2017-11-28T12:18:00.907Z,4.63
2017-11-28T12:20:29.028Z,5.30
2017-11-28T12:22:57.162Z,4.77
2017-11-28T12:25:25.274Z,5.00
2017-11-28T12:27:53.439Z,5.40
2017-11-28T12:30:21.572Z,4.60
2017-11-28T12:32:49.723Z,4.70
2017-11-28T12:35:18.619Z,4.90
2017-11-28T12:37:47.543Z,5.80
2017-11-28T12:40:15.664Z,4.60
2017-11-28T12:42:43.811Z,4.60
2017-11-28T12:45:11.941Z,5.00
2017-11-28T12:47:40.074Z,5.57
2017-11-28T12:50:08.220Z,5.77
2017-11-28T12:52:36.434Z,4.40
2017-11-28T12:55:04.588Z,5.40
2017-11-28T12:57:32.717Z,5.20
2017-11-28T13:00:00.855Z,4.60
2017-11-28T13:02:29.016Z,4.80
2017-11-28T13:04:57.161Z,5.90
2017-11-28T13:07:25.311Z,5.47
2017-11-28T13:09:53.447Z,4.97
2017-11-28T13:12:21.595Z,4.87
2017-11-28T13:14:49.746Z,5.20
2017-11-28T13:17:17.859Z,5.10
2017-11-28T13:19:46.004Z,5.00
2017-11-28T13:22:14.130Z,5.10
2017-11-28T13:24:43.049Z,4.60
2017-11-28T13:27:11.231Z,5.63
2017-11-28T13:29:39.387Z,4.60
2017-11-28T13:32:07.528Z,5.07
2017-11-28T13:34:36.127Z,4.97
2017-11-28T13:37:05.033Z,4.30
2017-11-28T13:39:33.179Z,4.27
2017-11-28T13:42:01.329Z,5.17
2017-11-28T13:44:29.477Z,5.17
2017-11-28T13:46:57.594Z,4.67
2017-11-28T13:49:25.761Z,5.30
2017-11-28T13:51:54.430Z,4.90
2017-11-28T13:54:22.637Z,5.10
2017-11-28T13:56:50.755Z,5.37
2017-11-28T13:59:19.737Z,5.73
2017-11-28T14:01:49.199Z,5.50
2017-11-28T14:04:17.335Z,5.13
2017-11-28T14:06:45.478Z,8.20
2017-11-28T14:09:13.635Z,5.60
2017-11-28T14:11:42.532Z,5.67
2017-11-28T14:14:11.456Z,6.20
2017-11-28T14:16:39.574Z,6.53
2017-11-28T14:19:07.745Z,5.10
2017-11-28T14:21:42.459Z,7.73
2017-11-28T14:24:15.067Z,9.10
2017-11-28T14:26:56.901Z,8.47
2017-11-28T14:29:30.504Z,5.27
2017-11-28T14:32:15.289Z,5.83
2017-11-28T14:34:53.331Z,7.20
2017-11-28T14:37:22.240Z,7.70
2017-11-28T14:39:50.422Z,6.87
2017-11-28T14:42:33.459Z,6.40
2017-11-28T14:45:02.114Z,5.63
2017-11-28T14:47:30.999Z,6.10
2017-11-28T14:49:59.946Z,6.17
2017-11-28T14:52:28.215Z,6.03
2017-11-28T14:55:02.799Z,6.27
2017-11-28T14:57:31.748Z,5.10
2017-11-28T15:00:05.466Z,7.30
2017-11-28T15:02:44.853Z,6.30
2017-11-28T15:05:18.591Z,7.43
2017-11-28T15:07:52.383Z,5.60
2017-11-28T15:10:41.249Z,8.90
2017-11-28T15:13:15.093Z,5.83
2017-11-28T15:16:02.000Z,6.53
2017-11-28T15:18:35.650Z,6.90
2017-11-28T15:21:07.233Z,8.20
2017-11-28T15:23:41.042Z,10.67
2017-11-28T15:26:20.931Z,7.27
2017-11-28T15:28:49.872Z,9.10
2017-11-28T15:31:18.088Z,8.07
2017-11-28T15:33:46.977Z,7.17
2017-11-28T15:36:15.869Z,6.20
2017-11-28T15:38:44.743Z,7.20
2017-11-28T15:41:12.927Z,5.07
2017-11-28T15:43:41.065Z,6.17
2017-11-28T15:46:09.213Z,5.30
2017-11-28T15:48:37.316Z,6.50
2017-11-28T15:51:05.494Z,6.70
2017-11-28T15:53:33.624Z,5.10
2017-11-28T15:56:01.761Z,5.10
2017-11-28T15:58:29.881Z,5.47
2017-11-28T16:00:58.047Z,5.53
2017-11-28T16:03:26.167Z,7.03
2017-11-28T16:05:54.310Z,6.20
2017-11-28T16:08:22.414Z,6.60
2017-11-28T16:10:50.550Z,5.30
2017-11-28T16:13:18.696Z,5.67
2017-11-28T16:15:47.574Z,5.57
2017-11-28T16:18:16.518Z,4.80
2017-11-28T16:20:44.634Z,5.07
2017-11-28T16:23:13.568Z,6.00
2017-11-28T16:25:41.686Z,5.50
2017-11-28T16:28:10.486Z,4.97
2017-11-28T16:30:38.603Z,5.47
2017-11-28T16:33:06.739Z,5.07
2017-11-28T16:35:35.608Z,4.70
2017-11-28T16:38:03.759Z,6.17
2017-11-28T16:40:31.888Z,5.97
2017-11-28T16:43:00.043Z,5.53
2017-11-28T16:45:28.142Z,5.40
2017-11-28T16:47:57.772Z,5.50
2017-11-28T16:50:25.868Z,4.90
2017-11-28T16:52:54.628Z,4.60
2017-11-28T16:55:22.757Z,6.10
2017-11-28T16:57:50.851Z,4.67
2017-11-28T17:00:19.058Z,4.30
2017-11-28T17:02:47.168Z,4.07
2017-11-28T17:05:15.303Z,4.03
2017-11-28T17:07:43.426Z,4.53
2017-11-28T17:10:12.333Z,4.30
2017-11-28T17:12:41.202Z,4.60
2017-11-28T17:15:09.339Z,3.50
2017-11-28T17:17:37.443Z,4.47
2017-11-28T17:20:05.581Z,4.00
2017-11-28T17:22:33.724Z,4.63
2017-11-28T17:25:01.875Z,4.67
2017-11-28T17:27:30.753Z,4.87
2017-11-28T17:29:58.901Z,4.27
2017-11-28T17:32:27.060Z,7.57
2017-11-28T17:34:55.198Z,4.90
2017-11-28T17:37:23.320Z,4.47
2017-11-28T17:39:51.444Z,4.63
2017-11-28T17:42:19.565Z,4.67
2017-11-28T17:44:48.498Z,4.80
2017-11-28T17:47:17.381Z,5.10
2017-11-28T17:49:45.561Z,5.50
2017-11-28T17:52:14.480Z,5.70
2017-11-28T17:54:42.584Z,5.90
2017-11-28T17:57:10.699Z,5.10
2017-11-28T17:59:39.574Z,5.63
2017-11-28T18:02:07.708Z,5.90
2017-11-28T18:04:35.829Z,5.50
2017-11-28T18:07:05.137Z,6.07
2017-11-28T18:09:34.029Z,5.87
2017-11-28T18:12:03.323Z,6.50
2017-11-28T18:14:32.213Z,5.63
2017-11-28T18:17:01.137Z,6.80
2017-11-28T18:19:29.263Z,6.20
2017-11-28T18:21:57.401Z,6.67
2017-11-28T18:24:25.504Z,6.30
2017-11-28T18:26:53.634Z,5.80
2017-11-28T18:29:21.753Z,5.60
2017-11-28T18:31:49.908Z,8.40
2017-11-28T18:34:18.026Z,6.10
2017-11-28T18:36:46.920Z,6.53
2017-11-28T18:39:15.019Z,6.00
2017-11-28T18:41:43.165Z,5.33
2017-11-28T18:44:11.292Z,5.73
2017-11-28T18:46:39.462Z,7.20
2017-11-28T18:49:07.574Z,5.87
2017-11-28T18:51:36.454Z,6.40
2017-11-28T18:54:04.555Z,5.50
2017-11-28T18:56:32.696Z,6.10
2017-11-28T18:59:00.803Z,8.60
2017-11-28T19:01:28.943Z,7.30
2017-11-28T19:03:57.093Z,7.20
2017-11-28T19:06:25.248Z,7.80
2017-11-28T19:08:53.407Z,10.20
2017-11-28T19:11:21.529Z,8.30
2017-11-28T19:13:49.659Z,13.20
2017-11-28T19:16:17.794Z,9.40
2017-11-28T19:18:46.726Z,7.00
2017-11-28T19:21:14.832Z,17.13
2017-11-28T19:23:42.989Z,11.50
2017-11-28T19:26:11.112Z,10.63
2017-11-28T19:28:40.158Z,9.07
2017-11-28T19:31:08.410Z,6.20
2017-11-28T19:33:36.551Z,15.23
2017-11-28T19:36:05.437Z,16.37
2017-11-28T19:38:34.325Z,6.13
2017-11-28T19:41:03.195Z,6.30
2017-11-28T19:43:31.338Z,18.63
2017-11-28T19:45:59.464Z,6.10
2017-11-28T19:48:28.390Z,21.93
2017-11-28T19:50:56.497Z,10.50
2017-11-28T19:53:24.652Z,8.20
2017-11-28T19:55:52.771Z,6.03
2017-11-28T19:58:21.706Z,11.47
2017-11-28T20:00:49.811Z,7.50
2017-11-28T20:03:17.972Z,14.10
2017-11-28T20:05:46.094Z,6.57
2017-11-28T20:08:15.017Z,6.47
2017-11-28T20:10:43.134Z,6.53
2017-11-28T20:13:11.255Z,6.60
2017-11-28T20:15:39.429Z,6.27
2017-11-28T20:18:07.544Z,6.17
2017-11-28T20:20:35.668Z,5.60
2017-11-28T20:23:03.795Z,5.67
2017-11-28T20:25:32.326Z,5.70
2017-11-28T20:31:00.300Z,5.63
2017-11-28T20:33:28.415Z,5.17
2017-11-28T20:35:56.578Z,5.80
2017-11-28T20:38:24.711Z,6.40
2017-11-28T20:40:53.647Z,6.20
2017-11-28T20:43:21.792Z,5.57
2017-11-28T20:45:49.966Z,5.97
2017-11-28T20:48:18.136Z,7.00
2017-11-28T20:50:46.316Z,6.60
2017-11-28T20:53:14.470Z,7.43
2017-11-28T20:55:42.680Z,8.97
2017-11-28T20:58:10.856Z,11.37
2017-11-28T21:00:39.048Z,13.87
2017-11-28T21:03:07.228Z,8.70
2017-11-28T21:05:35.382Z,8.47
2017-11-28T21:08:03.539Z,9.60
2017-11-28T21:10:31.728Z,6.43
2017-11-28T21:12:59.884Z,6.10
2017-11-28T21:15:28.040Z,5.00
2017-11-28T21:17:56.190Z,5.23
2017-11-28T21:20:24.366Z,5.10
2017-11-28T21:22:53.278Z,6.00
2017-11-28T21:25:22.210Z,4.77
2017-11-28T21:27:50.344Z,5.30
2017-11-28T21:30:19.263Z,4.97
2017-11-28T21:32:47.419Z,5.77
2017-11-28T21:35:15.602Z,4.67
2017-11-28T21:37:43.771Z,5.37
2017-11-28T21:40:11.930Z,5.00
2017-11-28T21:42:40.118Z,5.37
2017-11-28T21:45:08.312Z,4.70
2017-11-28T21:47:36.483Z,5.03
2017-11-28T21:50:04.654Z,4.53
2017-11-28T21:52:33.260Z,5.47
2017-11-28T21:55:01.398Z,5.20
2017-11-28T21:57:29.567Z,5.40
2017-11-28T21:59:57.697Z,5.03
2017-11-28T22:02:25.853Z,4.83
2017-11-28T22:04:53.989Z,5.40
2017-11-28T22:07:22.147Z,5.77
2017-11-28T22:09:51.050Z,5.23
2017-11-28T22:12:19.240Z,6.03
2017-11-28T22:14:47.374Z,5.70
2017-11-28T22:17:15.663Z,6.00
2017-11-28T22:19:43.815Z,6.40
2017-11-28T22:22:11.983Z,6.03
2017-11-28T22:24:40.115Z,6.20
2017-11-28T22:27:08.278Z,5.50
2017-11-28T22:29:36.401Z,6.67
2017-11-28T22:32:04.800Z,5.60
2017-11-28T22:34:33.703Z,5.77
2017-11-28T22:37:02.669Z,6.27
2017-11-28T22:39:30.807Z,6.20
2017-11-28T22:41:58.962Z,4.87
2017-11-28T22:44:27.118Z,6.40
2017-11-28T22:46:55.326Z,5.30
2017-11-28T22:49:23.467Z,6.07
2017-11-28T22:51:52.399Z,5.67
2017-11-28T22:54:20.530Z,5.20
2017-11-28T22:56:49.430Z,5.70
2017-11-28T22:59:17.621Z,5.97
2017-11-28T23:01:45.761Z,6.10
2017-11-28T23:04:14.683Z,5.20
2017-11-28T23:06:42.811Z,6.50
2017-11-28T23:09:10.971Z,5.10
2017-11-28T23:11:39.111Z,5.70
2017-11-28T23:14:07.285Z,5.53
2017-11-28T23:16:35.432Z,6.50
2017-11-28T23:19:04.415Z,4.90
2017-11-28T23:21:32.586Z,6.30
2017-11-28T23:24:00.746Z,6.67
2017-11-28T23:26:28.903Z,6.43
2017-11-28T23:28:57.080Z,7.00
2017-11-28T23:31:25.212Z,6.83
2017-11-28T23:33:53.378Z,7.13
2017-11-28T23:36:21.514Z,6.30
2017-11-28T23:38:49.659Z,6.83
2017-11-28T23:41:17.822Z,6.73
2017-11-28T23:43:45.984Z,7.50
2017-11-28T23:46:14.137Z,6.80
2017-11-28T23:48:43.070Z,7.00
2017-11-28T23:51:11.243Z,7.03
2017-11-28T23:53:39.410Z,7.13
2017-11-28T23:56:08.422Z,6.37
2017-11-28T23:58:36.593Z,6.47
